createdAt,value
2023-01-25T00:01:11.081Z,20.23
2023-01-25T00:03:13.292Z,20.10
2023-01-25T00:05:15.578Z,17.97
2023-01-25T00:07:17.678Z,17.53
2023-01-25T00:09:20.544Z,18.47
2023-01-25T00:11:22.721Z,17.57
2023-01-25T00:13:24.865Z,19.40
2023-01-25T00:15:26.945Z,17.50
2023-01-25T00:17:29.124Z,18.87
2023-01-25T00:19:31.214Z,18.60
2023-01-25T00:21:34.263Z,18.73
2023-01-25T00:23:36.367Z,18.47
2023-01-25T00:25:38.472Z,17.30
2023-01-25T00:27:40.546Z,18.50
2023-01-25T00:29:42.768Z,19.97
2023-01-25T00:32:01.745Z,17.30
2023-01-25T00:34:25.149Z,18.77
2023-01-25T00:36:39.289Z,16.83
2023-01-25T00:38:43.501Z,19.00
2023-01-25T00:40:49.513Z,18.10
2023-01-25T00:42:52.089Z,18.77
2023-01-25T00:44:54.979Z,17.40
2023-01-25T00:46:57.120Z,17.73
2023-01-25T00:48:59.425Z,18.97
2023-01-25T00:51:02.085Z,17.47
2023-01-25T00:53:04.418Z,19.23
2023-01-25T00:55:07.351Z,18.30
2023-01-25T00:57:09.906Z,19.87
2023-01-25T00:59:12.862Z,18.20
2023-01-25T01:01:15.654Z,17.80
2023-01-25T01:03:17.873Z,16.77
2023-01-25T01:05:21.186Z,19.20
2023-01-25T01:07:23.476Z,16.77
2023-01-25T01:09:27.564Z,18.00
2023-01-25T01:11:31.477Z,19.77
2023-01-25T01:13:34.122Z,19.53
2023-01-25T01:15:37.374Z,18.10
2023-01-25T01:17:39.592Z,19.50
2023-01-25T01:19:42.108Z,18.87
2023-01-25T01:21:44.252Z,20.30
2023-01-25T01:23:46.587Z,19.80
2023-01-25T01:25:48.820Z,20.00
2023-01-25T01:27:51.457Z,22.40
2023-01-25T01:29:53.570Z,20.60
2023-01-25T01:31:56.491Z,21.87
2023-01-25T01:34:01.195Z,21.80
2023-01-25T01:36:16.910Z,22.20
2023-01-25T01:38:19.135Z,19.70
2023-01-25T01:40:21.592Z,20.77
2023-01-25T01:42:23.725Z,20.07
2023-01-25T01:44:48.764Z,20.50
2023-01-25T01:46:55.565Z,20.80
2023-01-25T01:49:06.305Z,20.80
2023-01-25T01:51:26.988Z,20.53
2023-01-25T01:53:31.174Z,21.20
2023-01-25T01:55:33.799Z,22.20
2023-01-25T01:57:42.793Z,22.53
2023-01-25T01:59:50.047Z,22.30
2023-01-25T02:01:52.399Z,21.30
2023-01-25T02:03:55.148Z,23.27
2023-01-25T02:06:04.701Z,20.50
2023-01-25T02:08:10.046Z,19.30
2023-01-25T02:10:12.666Z,21.67
2023-01-25T02:12:18.511Z,21.87
2023-01-25T02:14:21.019Z,21.80
2023-01-25T02:16:26.493Z,22.77
2023-01-25T02:18:29.127Z,20.77
2023-01-25T02:20:43.808Z,21.70
2023-01-25T02:23:12.298Z,21.03
2023-01-25T02:25:17.041Z,23.43
2023-01-25T02:27:19.317Z,21.17
2023-01-25T02:29:24.206Z,19.80
2023-01-25T02:31:27.822Z,20.37
2023-01-25T02:33:30.156Z,18.90
2023-01-25T02:35:42.895Z,18.97
2023-01-25T02:37:45.175Z,21.03
2023-01-25T02:39:47.641Z,20.40
2023-01-25T02:41:49.955Z,22.30
2023-01-25T02:43:52.468Z,19.50
2023-01-25T02:45:59.899Z,20.23
2023-01-25T02:48:02.777Z,19.10
2023-01-25T02:50:05.525Z,19.47
2023-01-25T02:52:08.054Z,17.83
2023-01-25T02:54:11.776Z,17.27
2023-01-25T02:56:13.982Z,16.70
2023-01-25T02:58:16.134Z,15.57
2023-01-25T03:00:18.392Z,20.00
2023-01-25T03:02:21.453Z,16.60
2023-01-25T03:04:23.880Z,16.83
2023-01-25T03:06:26.119Z,17.80
2023-01-25T03:08:28.267Z,17.43
2023-01-25T03:10:30.449Z,16.70
2023-01-25T03:12:33.370Z,18.83
2023-01-25T03:14:35.544Z,18.73
2023-01-25T03:16:38.358Z,17.20
2023-01-25T03:18:41.606Z,17.73
2023-01-25T03:20:43.951Z,15.83
2023-01-25T03:22:46.087Z,16.23
2023-01-25T03:24:48.490Z,15.47
2023-01-25T03:27:09.511Z,13.80
2023-01-25T03:29:17.000Z,14.77
2023-01-25T03:31:21.137Z,15.43
2023-01-25T03:33:23.526Z,15.47
2023-01-25T03:35:25.748Z,14.30
2023-01-25T03:37:31.121Z,14.80
2023-01-25T03:39:34.105Z,15.10
2023-01-25T03:41:36.235Z,16.50
2023-01-25T03:43:38.816Z,16.27
2023-01-25T03:45:41.186Z,14.80
2023-01-25T03:47:43.342Z,16.87
2023-01-25T03:49:45.506Z,16.57
2023-01-25T03:51:49.657Z,15.90
2023-01-25T03:53:53.242Z,16.50
2023-01-25T03:56:04.838Z,16.00
2023-01-25T03:58:07.125Z,14.87
2023-01-25T04:00:12.944Z,16.80
2023-01-25T04:02:20.161Z,16.57
2023-01-25T04:04:22.347Z,17.10
2023-01-25T04:06:25.215Z,16.73
2023-01-25T04:08:27.857Z,16.97
2023-01-25T04:10:29.993Z,15.43
2023-01-25T04:12:32.445Z,14.73
2023-01-25T04:14:44.052Z,16.13
2023-01-25T04:16:51.734Z,15.53
2023-01-25T04:19:23.079Z,18.10
2023-01-25T04:21:25.623Z,14.80
2023-01-25T04:23:28.221Z,17.60
2023-01-25T04:25:30.332Z,15.77
2023-01-25T04:27:33.153Z,14.13
2023-01-25T04:29:47.986Z,16.37
2023-01-25T04:31:54.271Z,15.00
2023-01-25T04:33:56.522Z,15.50
2023-01-25T04:35:59.057Z,14.60
2023-01-25T04:38:02.232Z,14.80
2023-01-25T04:40:13.760Z,15.73
2023-01-25T04:42:19.661Z,15.07
2023-01-25T04:44:25.278Z,17.07
2023-01-25T04:46:27.452Z,17.13
2023-01-25T04:48:29.955Z,14.73
2023-01-25T04:50:37.296Z,14.90
2023-01-25T04:52:40.049Z,15.87
2023-01-25T04:54:42.431Z,16.03
2023-01-25T04:56:46.433Z,16.33
2023-01-25T04:58:48.734Z,16.50
2023-01-25T05:00:51.010Z,17.73
2023-01-25T05:02:53.970Z,19.23
2023-01-25T05:04:56.117Z,16.73
2023-01-25T05:06:58.235Z,16.50
2023-01-25T05:09:01.880Z,16.20
2023-01-25T05:11:04.254Z,17.20
2023-01-25T05:13:24.625Z,17.53
2023-01-25T05:15:34.813Z,16.73
2023-01-25T05:17:37.992Z,13.90
2023-01-25T05:19:40.837Z,17.03
2023-01-25T05:22:00.340Z,16.00
2023-01-25T05:24:23.028Z,17.67
2023-01-25T05:26:43.820Z,16.83
2023-01-25T05:28:45.992Z,15.73
2023-01-25T05:30:56.275Z,17.23
2023-01-25T05:33:02.464Z,15.33
2023-01-25T05:35:06.611Z,16.83
2023-01-25T05:37:10.862Z,16.80
2023-01-25T05:39:16.334Z,16.80
2023-01-25T05:41:20.077Z,17.33
2023-01-25T05:43:24.306Z,17.13
2023-01-25T05:45:26.986Z,16.43
2023-01-25T05:47:30.368Z,18.00
2023-01-25T05:49:32.537Z,18.10
2023-01-25T05:51:35.708Z,17.20
2023-01-25T05:53:37.909Z,17.20
2023-01-25T05:55:40.132Z,17.77
2023-01-25T05:57:45.471Z,17.27
2023-01-25T05:59:47.607Z,16.70
2023-01-25T06:01:53.408Z,16.00
2023-01-25T06:03:55.785Z,17.30
2023-01-25T06:06:02.459Z,17.27
2023-01-25T06:08:06.042Z,17.23
2023-01-25T06:10:17.514Z,15.63
2023-01-25T06:12:22.320Z,15.47
2023-01-25T06:14:25.160Z,15.13
2023-01-25T06:16:27.995Z,16.90
2023-01-25T06:18:31.512Z,19.00
2023-01-25T06:20:52.512Z,17.70
2023-01-25T06:23:00.630Z,17.50
2023-01-25T06:25:02.709Z,16.17
2023-01-25T06:27:05.062Z,16.13
2023-01-25T06:29:07.224Z,16.87
2023-01-25T06:31:12.108Z,16.27
2023-01-25T06:33:14.399Z,15.40
2023-01-25T06:35:16.616Z,17.10
2023-01-25T06:37:20.269Z,16.27
2023-01-25T06:39:22.361Z,15.43
2023-01-25T06:41:24.526Z,15.93
2023-01-25T06:43:27.100Z,17.13
2023-01-25T06:45:29.215Z,16.20
2023-01-25T06:47:31.435Z,16.40
2023-01-25T06:49:33.538Z,17.77
2023-01-25T06:51:35.659Z,17.50
2023-01-25T06:53:39.753Z,16.50
2023-01-25T06:55:41.883Z,15.80
2023-01-25T06:57:44.003Z,17.87
2023-01-25T06:59:46.136Z,18.40
2023-01-25T07:01:48.261Z,18.80
2023-01-25T07:03:51.787Z,17.23
2023-01-25T07:05:58.962Z,16.57
2023-01-25T07:08:01.263Z,17.83
2023-01-25T07:10:03.812Z,18.40
2023-01-25T07:12:06.448Z,18.10
2023-01-25T07:14:08.630Z,19.30
2023-01-25T07:16:13.690Z,17.90
2023-01-25T07:18:16.793Z,18.17
2023-01-25T07:20:18.977Z,18.93
2023-01-25T07:22:21.109Z,18.53
2023-01-25T07:24:27.216Z,18.30
2023-01-25T07:26:29.889Z,19.50
2023-01-25T07:28:33.015Z,18.60
2023-01-25T07:30:35.116Z,15.77
2023-01-25T07:32:37.116Z,18.10
2023-01-25T07:34:39.087Z,15.90
2023-01-25T07:36:41.529Z,18.40
2023-01-25T07:38:43.822Z,16.57
2023-01-25T07:40:53.245Z,19.60
2023-01-25T07:42:55.316Z,19.20
2023-01-25T07:44:59.690Z,18.50
2023-01-25T07:47:02.128Z,16.93
2023-01-25T07:49:04.160Z,18.00
2023-01-25T07:51:23.233Z,17.87
2023-01-25T07:53:25.278Z,18.93
2023-01-25T07:55:27.261Z,17.90
2023-01-25T07:57:29.391Z,20.13
2023-01-25T07:59:32.093Z,20.03
2023-01-25T08:01:34.986Z,19.40
2023-01-25T08:03:37.231Z,20.10
2023-01-25T08:05:44.669Z,18.37
2023-01-25T08:07:47.369Z,19.63
2023-01-25T08:09:49.315Z,18.00
2023-01-25T08:11:53.478Z,19.40
2023-01-25T08:13:55.944Z,19.10
2023-01-25T08:15:57.912Z,17.90
2023-01-25T08:18:00.150Z,17.83
2023-01-25T08:20:02.771Z,16.60
2023-01-25T08:22:07.661Z,20.53
2023-01-25T08:24:09.892Z,16.37
2023-01-25T08:26:13.761Z,18.17
2023-01-25T08:28:15.772Z,19.37
2023-01-25T08:30:18.068Z,18.83
2023-01-25T08:32:20.098Z,18.10
2023-01-25T08:34:22.213Z,17.80
2023-01-25T08:36:24.471Z,16.93
2023-01-25T08:38:26.551Z,18.93
2023-01-25T08:40:28.562Z,19.00
2023-01-25T08:42:30.514Z,18.43
2023-01-25T08:44:32.701Z,20.03
2023-01-25T08:46:34.748Z,19.80
2023-01-25T08:48:36.861Z,19.93
2023-01-25T08:50:38.888Z,19.37
2023-01-25T08:52:41.100Z,20.47
2023-01-25T08:54:44.374Z,21.33
2023-01-25T08:56:46.418Z,21.17
2023-01-25T08:58:50.074Z,21.43
2023-01-25T09:00:53.038Z,20.40
2023-01-25T09:02:55.079Z,22.13
2023-01-25T09:04:57.186Z,22.70
2023-01-25T09:06:59.153Z,21.40
2023-01-25T09:09:01.195Z,20.93
2023-01-25T09:11:08.167Z,21.70
2023-01-25T09:13:10.147Z,21.47
2023-01-25T09:15:12.315Z,22.50
2023-01-25T09:17:14.369Z,21.50
2023-01-25T09:19:16.434Z,20.20
2023-01-25T09:21:19.173Z,25.00
2023-01-25T09:23:23.787Z,21.60
2023-01-25T09:25:25.870Z,20.90
2023-01-25T09:27:27.908Z,19.10
2023-01-25T09:29:29.901Z,21.20
2023-01-25T09:31:32.244Z,22.80
2023-01-25T09:33:58.485Z,21.70
2023-01-25T09:36:01.596Z,20.90
2023-01-25T09:38:03.534Z,20.90
2023-01-25T09:40:07.546Z,21.80
2023-01-25T09:42:32.727Z,20.20
2023-01-25T09:45:05.312Z,22.13
2023-01-25T09:47:13.812Z,19.90
2023-01-25T09:49:26.840Z,20.37
2023-01-25T09:51:58.040Z,20.17
2023-01-25T09:54:01.149Z,20.60
2023-01-25T09:56:13.547Z,19.73
2023-01-25T09:58:21.131Z,20.80
2023-01-25T10:00:28.668Z,20.47
2023-01-25T10:02:30.679Z,19.77
2023-01-25T10:04:42.936Z,19.23
2023-01-25T10:07:02.230Z,19.30
2023-01-25T10:09:12.948Z,20.03
2023-01-25T10:11:24.634Z,19.67
2023-01-25T10:13:31.797Z,18.53
2023-01-25T10:15:43.696Z,19.10
2023-01-25T10:17:46.316Z,17.80
2023-01-25T10:19:59.060Z,17.10
2023-01-25T10:22:24.961Z,17.33
2023-01-25T10:24:42.163Z,16.50
2023-01-25T10:26:49.152Z,14.40
2023-01-25T10:29:14.127Z,17.83
2023-01-25T10:31:21.080Z,18.03
2023-01-25T10:33:23.105Z,18.00
2023-01-25T10:35:35.882Z,18.00
2023-01-25T10:37:39.424Z,20.17
2023-01-25T10:39:49.711Z,16.90
2023-01-25T10:41:57.927Z,17.47
2023-01-25T10:44:18.638Z,17.83
2023-01-25T10:46:24.187Z,18.87
2023-01-25T10:48:32.969Z,18.03
2023-01-25T10:50:47.078Z,19.17
2023-01-25T10:52:57.836Z,19.17
2023-01-25T10:55:15.017Z,18.70
2023-01-25T10:57:21.332Z,20.20
2023-01-25T10:59:26.144Z,18.83
2023-01-25T11:01:33.518Z,19.40
2023-01-25T11:03:47.479Z,19.97
2023-01-25T11:05:57.001Z,18.10
2023-01-25T11:08:00.133Z,18.67
2023-01-25T11:10:02.128Z,18.80
2023-01-25T11:12:11.822Z,17.00
2023-01-25T11:14:16.869Z,16.43
2023-01-25T11:16:18.901Z,15.47
2023-01-25T11:18:22.161Z,15.53
2023-01-25T11:20:24.207Z,17.00
2023-01-25T11:22:26.447Z,18.57
2023-01-25T11:24:33.468Z,17.20
2023-01-25T11:26:40.242Z,17.63
2023-01-25T11:28:50.060Z,16.90
2023-01-25T11:30:53.126Z,17.53
2023-01-25T11:32:55.396Z,15.40
2023-01-25T11:34:57.578Z,17.03
2023-01-25T11:37:27.000Z,18.00
2023-01-25T11:39:53.660Z,18.70
2023-01-25T11:42:09.230Z,18.17
2023-01-25T11:44:22.658Z,21.37
2023-01-25T11:46:27.642Z,18.67
2023-01-25T11:48:43.807Z,19.43
2023-01-25T11:50:50.088Z,18.50
2023-01-25T11:53:00.631Z,21.47
2023-01-25T11:55:21.025Z,20.77
2023-01-25T11:57:29.307Z,17.77
2023-01-25T11:59:31.363Z,18.47
2023-01-25T12:01:39.230Z,17.70
2023-01-25T12:03:41.228Z,18.20
2023-01-25T12:06:07.665Z,22.23
2023-01-25T12:08:18.072Z,20.83
2023-01-25T12:10:26.059Z,17.30
2023-01-25T12:12:46.428Z,19.43
2023-01-25T12:14:57.530Z,19.73
2023-01-25T12:17:08.711Z,19.33
2023-01-25T12:19:32.240Z,14.90
2023-01-25T12:21:43.759Z,18.27
2023-01-25T12:24:08.629Z,17.83
2023-01-25T12:26:48.991Z,17.33
2023-01-25T12:28:57.605Z,16.53
2023-01-25T12:31:22.448Z,17.10
2023-01-25T12:33:47.857Z,18.30
2023-01-25T12:35:56.840Z,18.30
2023-01-25T12:38:04.711Z,16.93
2023-01-25T12:40:13.665Z,16.40
2023-01-25T12:42:20.428Z,18.20
2023-01-25T12:44:42.320Z,19.60
2023-01-25T12:46:47.152Z,18.67
2023-01-25T12:48:51.082Z,20.50
2023-01-25T12:50:58.076Z,18.70
2023-01-25T12:53:06.652Z,19.10
2023-01-25T12:55:14.662Z,17.10
2023-01-25T12:57:36.034Z,18.13
2023-01-25T12:59:44.156Z,18.30
2023-01-25T13:02:09.094Z,18.87
2023-01-25T13:04:26.190Z,19.17
2023-01-25T13:06:39.510Z,17.50
2023-01-25T13:08:59.694Z,20.20
2023-01-25T13:11:20.404Z,17.20
2023-01-25T13:13:25.697Z,16.10
2023-01-25T13:15:38.033Z,16.97
2023-01-25T13:17:40.688Z,40.43
2023-01-25T13:19:43.134Z,36.90
2023-01-25T13:21:46.702Z,27.30
2023-01-25T13:24:20.666Z,19.60
2023-01-25T13:26:23.828Z,18.77
2023-01-25T13:28:45.122Z,20.53
2023-01-25T13:30:53.806Z,19.63
2023-01-25T13:32:59.193Z,18.80
2023-01-25T13:35:01.641Z,19.03
2023-01-25T13:37:05.587Z,21.37
2023-01-25T13:39:27.098Z,19.80
2023-01-25T13:41:29.204Z,27.17
2023-01-25T13:43:31.312Z,23.30
2023-01-25T13:45:35.713Z,28.80
2023-01-25T13:47:38.283Z,21.20
2023-01-25T13:49:43.312Z,33.07
2023-01-25T13:51:45.338Z,20.43
2023-01-25T13:53:58.413Z,20.93
2023-01-25T13:56:01.429Z,24.10
2023-01-25T13:58:37.351Z,23.77
2023-01-25T14:00:48.372Z,23.17
2023-01-25T14:02:56.443Z,19.90
2023-01-25T14:04:58.673Z,20.23
2023-01-25T14:07:09.810Z,20.60
2023-01-25T14:09:17.317Z,20.93
2023-01-25T14:11:21.091Z,20.00
2023-01-25T14:13:23.185Z,19.53
2023-01-25T14:15:30.357Z,19.80
2023-01-25T14:17:32.396Z,20.53
2023-01-25T14:19:39.272Z,21.40
2023-01-25T14:21:41.275Z,20.70
2023-01-25T14:23:43.417Z,20.60
2023-01-25T14:25:45.435Z,19.90
2023-01-25T14:27:50.539Z,20.60
2023-01-25T14:29:52.612Z,20.30
2023-01-25T14:31:54.799Z,21.83
2023-01-25T14:33:59.947Z,21.90
2023-01-25T14:36:24.157Z,24.70
2023-01-25T14:38:35.462Z,21.20
2023-01-25T14:40:37.557Z,21.63
2023-01-25T14:42:39.668Z,20.17
2023-01-25T14:44:42.200Z,21.63
2023-01-25T14:46:44.198Z,31.20
2023-01-25T14:48:47.107Z,40.27
2023-01-25T14:50:49.185Z,33.80
2023-01-25T14:52:51.333Z,26.03
2023-01-25T14:54:56.307Z,24.63
2023-01-25T14:57:00.732Z,23.43
2023-01-25T14:59:04.841Z,24.40
2023-01-25T15:01:07.169Z,22.07
2023-01-25T15:03:15.941Z,22.27
2023-01-25T15:05:29.639Z,24.10
2023-01-25T15:07:33.802Z,21.30
2023-01-25T15:09:37.717Z,25.00
2023-01-25T15:11:45.536Z,23.87
2023-01-25T15:13:47.915Z,21.27
2023-01-25T15:15:57.768Z,34.50
2023-01-25T15:18:00.250Z,28.00
2023-01-25T15:20:02.280Z,23.10
2023-01-25T15:22:05.227Z,22.20
2023-01-25T15:24:10.870Z,22.13
2023-01-25T15:26:19.940Z,25.60
2023-01-25T15:28:23.833Z,24.57
2023-01-25T15:30:26.004Z,26.80
2023-01-25T15:32:28.087Z,24.30
2023-01-25T15:34:32.885Z,27.57
2023-01-25T15:36:34.963Z,25.00
2023-01-25T15:38:37.458Z,26.27
2023-01-25T15:40:39.491Z,30.07
2023-01-25T15:42:41.577Z,25.20
2023-01-25T15:44:43.507Z,24.30
2023-01-25T15:46:46.763Z,23.53
2023-01-25T15:48:50.232Z,25.03
2023-01-25T15:50:54.210Z,23.47
2023-01-25T15:52:56.280Z,29.97
2023-01-25T15:55:01.662Z,26.10
2023-01-25T15:57:04.123Z,28.00
2023-01-25T15:59:07.929Z,26.80
2023-01-25T16:01:10.141Z,27.27
2023-01-25T16:03:13.048Z,32.53
2023-01-25T16:05:15.241Z,29.87
2023-01-25T16:07:23.510Z,28.47
2023-01-25T16:09:28.439Z,26.50
2023-01-25T16:11:30.374Z,24.80
2023-01-25T16:13:32.388Z,25.40
2023-01-25T16:15:34.413Z,24.80
2023-01-25T16:17:36.397Z,25.60
2023-01-25T16:19:38.462Z,26.00
2023-01-25T16:21:41.219Z,27.37
2023-01-25T16:23:43.336Z,28.60
2023-01-25T16:25:48.379Z,30.20
2023-01-25T16:27:50.614Z,25.20
2023-01-25T16:29:52.996Z,26.33
2023-01-25T16:31:56.089Z,22.53
2023-01-25T16:33:58.248Z,24.67
2023-01-25T16:36:14.813Z,27.00
2023-01-25T16:38:16.770Z,36.87
2023-01-25T16:40:23.592Z,31.07
2023-01-25T16:42:25.572Z,28.00
2023-01-25T16:44:27.631Z,28.47
2023-01-25T16:46:29.651Z,28.73
2023-01-25T16:48:31.587Z,27.23
2023-01-25T16:50:33.672Z,25.67
2023-01-25T16:52:35.668Z,24.53
2023-01-25T16:54:37.776Z,26.77
2023-01-25T16:56:40.056Z,23.17
2023-01-25T16:58:42.052Z,27.40
2023-01-25T17:00:43.995Z,25.90
2023-01-25T17:02:58.199Z,25.57
2023-01-25T17:05:01.277Z,25.37
2023-01-25T17:07:03.278Z,30.23
2023-01-25T17:09:21.682Z,25.67
2023-01-25T17:11:25.205Z,24.30
2023-01-25T17:13:27.277Z,23.60
2023-01-25T17:15:29.443Z,24.77
2023-01-25T17:17:31.748Z,25.20
2023-01-25T17:19:33.738Z,25.50
2023-01-25T17:21:35.732Z,25.00
2023-01-25T17:23:38.183Z,28.00
2023-01-25T17:25:40.743Z,26.13
2023-01-25T17:27:42.920Z,29.00
2023-01-25T17:29:46.040Z,26.30
2023-01-25T17:31:48.693Z,25.83
2023-01-25T17:33:51.026Z,24.83
2023-01-25T17:35:58.312Z,23.20
2023-01-25T17:38:00.496Z,26.00
2023-01-25T17:40:02.929Z,25.77
2023-01-25T17:42:06.454Z,25.37
2023-01-25T17:44:08.593Z,24.97
2023-01-25T17:46:15.647Z,24.27
2023-01-25T17:48:17.804Z,24.20
2023-01-25T17:50:19.936Z,24.00
2023-01-25T17:52:22.159Z,23.87
2023-01-25T17:54:24.281Z,24.20
2023-01-25T17:56:26.905Z,23.57
2023-01-25T17:58:29.805Z,23.40
2023-01-25T18:00:32.378Z,24.93
2023-01-25T18:02:36.149Z,25.70
2023-01-25T18:04:38.357Z,21.47
2023-01-25T18:06:40.653Z,23.43
2023-01-25T18:08:45.593Z,22.93
2023-01-25T18:10:47.679Z,26.33
2023-01-25T18:13:03.742Z,23.07
2023-01-25T18:15:07.716Z,23.10
2023-01-25T18:17:10.003Z,23.83
2023-01-25T18:19:12.868Z,27.10
2023-01-25T18:21:17.160Z,23.70
2023-01-25T18:23:19.293Z,29.10
2023-01-25T18:25:35.823Z,33.20
2023-01-25T18:27:37.924Z,27.83
2023-01-25T18:29:47.972Z,24.67
2023-01-25T18:31:51.062Z,29.43
2023-01-25T18:33:53.400Z,27.47
2023-01-25T18:35:57.457Z,25.80
2023-01-25T18:37:59.921Z,25.77
2023-01-25T18:40:02.044Z,23.80
2023-01-25T18:42:04.413Z,23.53
2023-01-25T18:44:06.572Z,24.50
2023-01-25T18:46:09.120Z,27.80
2023-01-25T18:48:13.475Z,22.50
2023-01-25T18:50:16.400Z,23.47
2023-01-25T18:52:20.194Z,24.70
2023-01-25T18:54:23.616Z,24.57
2023-01-25T18:56:27.346Z,25.27
2023-01-25T18:58:33.034Z,22.73
2023-01-25T19:00:35.250Z,24.53
2023-01-25T19:02:37.935Z,20.80
2023-01-25T19:04:40.333Z,25.97
2023-01-25T19:06:42.657Z,21.87
2023-01-25T19:08:49.665Z,22.47
2023-01-25T19:10:58.538Z,21.00
2023-01-25T19:13:00.765Z,22.87
2023-01-25T19:15:02.999Z,20.87
2023-01-25T19:17:07.475Z,21.87
2023-01-25T19:19:09.844Z,25.20
2023-01-25T19:21:13.582Z,25.73
2023-01-25T19:23:15.800Z,24.77
2023-01-25T19:25:18.173Z,24.47
2023-01-25T19:27:20.549Z,22.93
2023-01-25T19:29:22.693Z,23.60
2023-01-25T19:31:26.390Z,22.17
2023-01-25T19:33:28.627Z,22.67
2023-01-25T19:35:30.829Z,25.40
2023-01-25T19:37:33.275Z,25.70
2023-01-25T19:39:35.915Z,23.57
2023-01-25T19:41:41.139Z,24.50
2023-01-25T19:43:43.675Z,22.67
2023-01-25T19:45:45.839Z,21.97
2023-01-25T19:47:47.980Z,25.00
2023-01-25T19:49:50.261Z,20.80
2023-01-25T19:51:55.540Z,26.70
2023-01-25T19:54:05.214Z,25.27
2023-01-25T19:56:09.177Z,23.97
2023-01-25T19:58:12.568Z,22.60
2023-01-25T20:00:15.235Z,24.77
2023-01-25T20:02:17.310Z,21.57
2023-01-25T20:04:22.391Z,21.20
2023-01-25T20:06:25.307Z,21.73
2023-01-25T20:08:31.525Z,23.57
2023-01-25T20:10:34.569Z,23.10
2023-01-25T20:12:36.694Z,21.50
2023-01-25T20:14:39.195Z,22.60
2023-01-25T20:16:41.522Z,22.30
2023-01-25T20:18:44.678Z,23.30
2023-01-25T20:20:55.155Z,23.87
2023-01-25T20:22:57.229Z,22.97
2023-01-25T20:24:59.350Z,21.97
2023-01-25T20:27:04.189Z,22.17
2023-01-25T20:29:07.594Z,23.63
2023-01-25T20:31:25.096Z,24.90
2023-01-25T20:33:27.264Z,24.83
2023-01-25T20:35:30.122Z,25.20
2023-01-25T20:37:32.256Z,24.53
2023-01-25T20:39:34.415Z,24.03
2023-01-25T20:41:36.615Z,22.93
2023-01-25T20:43:38.755Z,25.27
2023-01-25T20:45:40.856Z,24.63
2023-01-25T20:47:43.108Z,22.03
2023-01-25T20:49:45.391Z,24.20
2023-01-25T20:51:47.706Z,23.30
2023-01-25T20:53:50.401Z,23.60
2023-01-25T20:55:56.103Z,22.90
2023-01-25T20:57:58.284Z,20.87
2023-01-25T21:00:00.598Z,21.10
2023-01-25T21:02:02.821Z,23.57
2023-01-25T21:04:07.441Z,20.50
2023-01-25T21:06:10.125Z,21.80
2023-01-25T21:08:12.221Z,22.60
2023-01-25T21:10:14.509Z,19.13
2023-01-25T21:12:16.697Z,21.77
2023-01-25T21:14:20.241Z,21.37
2023-01-25T21:16:22.968Z,20.00
2023-01-25T21:18:28.037Z,20.03
2023-01-25T21:20:30.271Z,24.80
2023-01-25T21:22:32.474Z,18.53
2023-01-25T21:24:34.649Z,20.20
2023-01-25T21:26:38.257Z,20.63
2023-01-25T21:28:40.438Z,21.00
2023-01-25T21:30:42.554Z,22.80
2023-01-25T21:32:44.692Z,19.00
2023-01-25T21:34:47.056Z,19.70
2023-01-25T21:36:49.168Z,18.67
2023-01-25T21:38:53.021Z,17.97
2023-01-25T21:41:02.973Z,20.23
2023-01-25T21:43:05.128Z,19.23
2023-01-25T21:45:27.192Z,20.17
2023-01-25T21:47:32.383Z,19.23
2023-01-25T21:49:53.335Z,22.67
2023-01-25T21:52:01.996Z,24.00
2023-01-25T21:54:05.405Z,20.87
2023-01-25T21:56:07.910Z,20.10
2023-01-25T21:58:10.604Z,19.97
2023-01-25T22:00:15.976Z,20.20
2023-01-25T22:02:18.126Z,21.33
2023-01-25T22:04:21.313Z,19.70
2023-01-25T22:06:23.528Z,19.87
2023-01-25T22:08:25.640Z,18.73
2023-01-25T22:10:27.804Z,18.97
2023-01-25T22:12:29.955Z,19.90
2023-01-25T22:14:32.099Z,19.83
2023-01-25T22:16:34.253Z,18.27
2023-01-25T22:18:38.932Z,19.73
2023-01-25T22:20:41.123Z,19.33
2023-01-25T22:22:43.240Z,20.70
2023-01-25T22:24:46.866Z,20.70
2023-01-25T22:26:48.930Z,20.50
2023-01-25T22:28:53.741Z,19.40
2023-01-25T22:30:55.954Z,17.67
2023-01-25T22:32:58.099Z,19.90
2023-01-25T22:35:00.297Z,20.83
2023-01-25T22:37:02.361Z,18.70
2023-01-25T22:39:04.507Z,18.73
2023-01-25T22:41:09.525Z,18.90
2023-01-25T22:43:11.650Z,20.37
2023-01-25T22:45:13.818Z,19.67
2023-01-25T22:47:16.040Z,20.30
2023-01-25T22:49:18.177Z,20.90
2023-01-25T22:51:25.067Z,21.17
2023-01-25T22:53:27.701Z,21.27
2023-01-25T22:55:29.836Z,21.90
2023-01-25T22:57:31.937Z,19.30
2023-01-25T22:59:34.047Z,22.43
2023-01-25T23:01:36.275Z,21.10
2023-01-25T23:03:38.718Z,19.90
2023-01-25T23:05:40.916Z,20.90
2023-01-25T23:07:43.101Z,19.20
2023-01-25T23:09:48.339Z,20.17
2023-01-25T23:11:50.422Z,20.37
2023-01-25T23:14:19.600Z,20.77
2023-01-25T23:16:21.723Z,18.10
2023-01-25T23:18:42.480Z,19.03
2023-01-25T23:20:44.572Z,18.50
2023-01-25T23:22:46.731Z,19.83
2023-01-25T23:24:48.937Z,18.10
2023-01-25T23:26:51.056Z,18.20
2023-01-25T23:28:55.482Z,19.03
2023-01-25T23:31:11.343Z,19.67
2023-01-25T23:33:32.524Z,18.50
2023-01-25T23:35:34.704Z,19.50
2023-01-25T23:37:36.834Z,18.17
2023-01-25T23:39:38.945Z,17.73
2023-01-25T23:41:41.157Z,18.53
2023-01-25T23:43:43.800Z,16.40
2023-01-25T23:45:45.927Z,16.87
2023-01-25T23:47:48.073Z,17.43
2023-01-25T23:49:50.237Z,15.67
2023-01-25T23:51:52.416Z,19.33
2023-01-25T23:53:55.830Z,19.93
2023-01-25T23:55:59.878Z,18.23
2023-01-25T23:58:02.504Z,17.47
